createdAt,value
2018-03-27T00:00:25.835Z,39.10
2018-03-27T00:01:25.824Z,39.90
2018-03-27T00:02:25.871Z,43.30
2018-03-27T00:03:25.814Z,41.50
2018-03-27T00:04:25.802Z,40.80
2018-03-27T00:05:25.795Z,45.20
2018-03-27T00:06:25.795Z,47.00
2018-03-27T00:07:25.782Z,48.80
2018-03-27T00:08:25.772Z,47.00
2018-03-27T00:09:25.765Z,41.50
2018-03-27T00:10:25.758Z,48.40
2018-03-27T00:11:25.754Z,45.20
2018-03-27T00:12:25.746Z,44.50
2018-03-27T00:13:25.738Z,42.00
2018-03-27T00:14:25.732Z,48.10
2018-03-27T00:15:25.723Z,42.90
2018-03-27T00:16:25.715Z,46.70
2018-03-27T00:17:25.705Z,46.20
2018-03-27T00:18:25.698Z,49.40
2018-03-27T00:19:25.691Z,49.30
2018-03-27T00:20:25.683Z,57.70
2018-03-27T00:21:25.679Z,55.10
2018-03-27T00:22:25.668Z,51.40
2018-03-27T00:23:25.660Z,54.80
2018-03-27T00:24:25.650Z,48.20
2018-03-27T00:25:25.652Z,49.40
2018-03-27T00:26:25.640Z,52.90
2018-03-27T00:27:25.628Z,55.50
2018-03-27T00:28:25.619Z,54.60
2018-03-27T00:29:25.613Z,54.00
2018-03-27T00:30:25.605Z,56.10
2018-03-27T00:31:25.598Z,52.90
2018-03-27T00:32:25.589Z,59.10
2018-03-27T00:33:25.586Z,55.70
2018-03-27T00:34:25.620Z,57.80
2018-03-27T00:35:25.566Z,57.50
2018-03-27T00:36:25.556Z,58.20
2018-03-27T00:37:25.552Z,59.80
2018-03-27T00:38:25.546Z,58.90
2018-03-27T00:39:25.546Z,54.90
2018-03-27T00:40:25.523Z,54.80
2018-03-27T00:41:25.524Z,58.80
2018-03-27T00:42:25.509Z,57.70
2018-03-27T00:43:25.501Z,54.30
2018-03-27T00:44:25.492Z,53.70
2018-03-27T00:45:25.485Z,58.40
2018-03-27T00:46:25.477Z,59.60
2018-03-27T00:47:25.469Z,56.10
2018-03-27T00:48:25.460Z,52.80
2018-03-27T00:49:25.452Z,62.70
2018-03-27T00:50:25.443Z,59.70
2018-03-27T00:51:25.440Z,58.60
2018-03-27T00:52:25.430Z,56.00
2018-03-27T00:53:25.419Z,61.90
2018-03-27T00:54:25.411Z,62.80
2018-03-27T00:55:25.408Z,69.20
2018-03-27T00:56:25.398Z,65.10
2018-03-27T00:57:25.386Z,66.60
2018-03-27T00:58:25.381Z,59.90
2018-03-27T00:59:25.371Z,63.10
2018-03-27T01:00:25.361Z,60.60
2018-03-27T01:01:25.354Z,60.10
2018-03-27T01:02:25.349Z,60.30
2018-03-27T01:03:25.338Z,62.70
2018-03-27T01:04:25.334Z,59.40
2018-03-27T01:05:25.324Z,61.00
2018-03-27T01:06:25.316Z,59.00
2018-03-27T01:07:25.306Z,58.70
2018-03-27T01:08:25.296Z,59.60
2018-03-27T01:09:25.291Z,56.70
2018-03-27T01:10:25.283Z,62.40
2018-03-27T01:11:25.271Z,58.70
2018-03-27T01:12:25.262Z,59.90
2018-03-27T01:13:25.259Z,56.80
2018-03-27T01:14:25.246Z,61.60
2018-03-27T01:15:25.239Z,58.40
2018-03-27T01:16:25.230Z,64.20
2018-03-27T01:17:25.222Z,65.10
2018-03-27T01:18:25.214Z,61.30
2018-03-27T01:19:25.206Z,58.80
2018-03-27T01:20:25.196Z,60.50
2018-03-27T01:21:25.187Z,61.70
2018-03-27T01:22:25.178Z,60.10
2018-03-27T01:23:25.175Z,63.80
2018-03-27T01:24:25.167Z,58.00
2018-03-27T01:25:25.155Z,58.30
2018-03-27T01:26:25.146Z,62.00
2018-03-27T01:27:25.141Z,69.50
2018-03-27T01:28:25.132Z,71.70
2018-03-27T01:29:25.121Z,68.00
2018-03-27T01:30:25.112Z,68.80
2018-03-27T01:31:25.103Z,63.90
2018-03-27T01:32:25.098Z,67.90
2018-03-27T01:33:25.086Z,64.30
2018-03-27T01:34:25.078Z,60.30
2018-03-27T01:35:25.073Z,64.60
2018-03-27T01:36:25.063Z,65.70
2018-03-27T01:37:25.056Z,64.40
2018-03-27T01:38:25.044Z,63.50
2018-03-27T01:39:25.035Z,60.10
2018-03-27T01:40:25.026Z,57.70
2018-03-27T01:41:25.016Z,63.40
2018-03-27T01:42:25.007Z,61.80
2018-03-27T01:43:25.002Z,58.30
2018-03-27T01:44:24.992Z,62.40
2018-03-27T01:45:24.981Z,61.00
2018-03-27T01:46:24.975Z,67.20
2018-03-27T01:47:24.968Z,64.80
2018-03-27T01:48:24.960Z,61.30
2018-03-27T01:49:24.950Z,68.30
2018-03-27T01:50:24.941Z,65.30
2018-03-27T01:51:24.929Z,60.80
2018-03-27T01:52:24.920Z,63.50
2018-03-27T01:53:24.912Z,63.90
2018-03-27T01:54:24.902Z,66.90
2018-03-27T01:55:24.893Z,60.20
2018-03-27T01:56:24.885Z,60.00
2018-03-27T01:57:24.882Z,58.10
2018-03-27T01:58:24.867Z,60.10
2018-03-27T01:59:24.858Z,59.20
2018-03-27T02:00:24.850Z,56.90
2018-03-27T02:01:24.843Z,56.00
2018-03-27T02:02:24.836Z,61.10
2018-03-27T02:03:24.823Z,56.60
2018-03-27T02:04:24.813Z,59.70
2018-03-27T02:05:24.803Z,59.60
2018-03-27T02:06:24.795Z,57.10
2018-03-27T02:07:24.790Z,67.50
2018-03-27T02:08:24.781Z,53.10
2018-03-27T02:09:24.770Z,54.60
2018-03-27T02:10:24.760Z,59.50
2018-03-27T02:11:24.751Z,58.30
2018-03-27T02:12:24.742Z,56.10
2018-03-27T02:13:24.733Z,58.10
2018-03-27T02:14:24.724Z,55.90
2018-03-27T02:15:24.715Z,55.40
2018-03-27T02:16:24.705Z,61.90
2018-03-27T02:17:24.698Z,54.80
2018-03-27T02:18:24.688Z,55.20
2018-03-27T02:19:24.682Z,56.00
2018-03-27T02:20:24.673Z,51.80
2018-03-27T02:21:24.668Z,55.90
2018-03-27T02:22:24.654Z,52.80
2018-03-27T02:23:24.643Z,54.50
2018-03-27T02:24:24.632Z,59.70
2018-03-27T02:25:24.624Z,52.10
2018-03-27T02:26:24.616Z,48.90
2018-03-27T02:27:24.607Z,51.10
2018-03-27T02:28:24.597Z,52.30
2018-03-27T02:29:24.588Z,52.40
2018-03-27T02:30:24.580Z,55.40
2018-03-27T02:31:24.570Z,55.70
2018-03-27T02:32:24.561Z,53.40
2018-03-27T02:33:24.555Z,56.50
2018-03-27T02:34:24.548Z,55.30
2018-03-27T02:35:24.535Z,56.50
2018-03-27T02:36:24.525Z,56.50
2018-03-27T02:37:24.520Z,58.40
2018-03-27T02:38:24.511Z,57.40
2018-03-27T02:39:24.499Z,58.70
2018-03-27T02:40:24.488Z,57.70
2018-03-27T02:41:24.479Z,57.50
2018-03-27T02:42:24.470Z,55.20
2018-03-27T02:43:24.461Z,53.00
2018-03-27T02:44:24.453Z,54.40
2018-03-27T02:45:24.443Z,55.70
2018-03-27T02:46:24.434Z,52.30
2018-03-27T02:47:24.424Z,51.20
2018-03-27T02:48:24.416Z,53.70
2018-03-27T02:49:24.409Z,51.50
2018-03-27T02:50:24.401Z,49.60
2018-03-27T02:51:24.387Z,49.10
2018-03-27T02:52:24.378Z,47.00
2018-03-27T02:53:24.369Z,48.70
2018-03-27T02:54:24.368Z,55.70
2018-03-27T02:55:24.357Z,50.30
2018-03-27T02:56:24.349Z,49.10
2018-03-27T02:57:24.342Z,49.90
2018-03-27T02:58:24.322Z,51.60
2018-03-27T02:59:24.313Z,49.60
2018-03-27T03:00:24.305Z,50.90
2018-03-27T03:01:24.302Z,53.40
2018-03-27T03:02:24.288Z,46.80
2018-03-27T03:03:24.277Z,53.00
2018-03-27T03:04:24.267Z,51.80
2018-03-27T03:05:24.260Z,53.50
2018-03-27T03:06:24.255Z,50.00
2018-03-27T03:07:24.246Z,51.20
2018-03-27T03:08:24.233Z,53.60
2018-03-27T03:09:24.227Z,46.00
2018-03-27T03:10:24.216Z,53.10
2018-03-27T03:11:24.204Z,46.80
2018-03-27T03:12:24.192Z,44.70
2018-03-27T03:13:24.185Z,52.40
2018-03-27T03:14:24.174Z,49.30
2018-03-27T03:15:24.166Z,50.00
2018-03-27T03:16:24.155Z,48.80
2018-03-27T03:17:24.146Z,47.30
2018-03-27T03:18:24.137Z,49.00
2018-03-27T03:19:24.128Z,47.30
2018-03-27T03:20:24.118Z,44.90
2018-03-27T03:21:24.113Z,51.60
2018-03-27T03:22:24.109Z,59.80
2018-03-27T03:23:24.092Z,54.40
2018-03-27T03:24:24.080Z,52.40
2018-03-27T03:25:24.073Z,52.80
2018-03-27T03:26:24.062Z,55.70
2018-03-27T03:27:24.058Z,53.80
2018-03-27T03:28:24.048Z,59.20
2018-03-27T03:29:24.035Z,54.10
2018-03-27T03:30:24.031Z,55.70
2018-03-27T03:31:24.020Z,54.50
2018-03-27T03:32:24.006Z,55.60
2018-03-27T03:33:23.998Z,52.70
2018-03-27T03:34:23.987Z,52.70
2018-03-27T03:35:23.980Z,59.00
2018-03-27T03:36:23.967Z,51.40
2018-03-27T03:37:23.958Z,51.40
2018-03-27T03:38:23.949Z,46.60
2018-03-27T03:39:23.944Z,50.70
2018-03-27T03:40:23.934Z,49.70
2018-03-27T03:41:23.921Z,46.00
2018-03-27T03:42:23.914Z,49.90
2018-03-27T03:43:23.902Z,47.10
2018-03-27T03:44:23.893Z,48.60
2018-03-27T03:45:23.882Z,50.10
2018-03-27T03:46:23.873Z,48.00
2018-03-27T03:47:23.869Z,57.50
2018-03-27T03:48:23.858Z,51.90
2018-03-27T03:49:23.844Z,54.80
2018-03-27T03:50:23.835Z,46.70
2018-03-27T03:51:23.831Z,50.00
2018-03-27T03:52:23.819Z,53.30
2018-03-27T03:53:23.807Z,61.80
2018-03-27T03:54:23.797Z,66.20
2018-03-27T03:55:23.789Z,58.90
2018-03-27T03:56:23.777Z,54.60
2018-03-27T03:57:23.769Z,61.90
2018-03-27T03:58:23.759Z,64.90
2018-03-27T03:59:23.749Z,60.50
2018-03-27T04:00:23.751Z,67.50
2018-03-27T04:01:23.733Z,57.50
2018-03-27T04:02:23.723Z,52.40
2018-03-27T04:03:23.709Z,49.00
2018-03-27T04:04:23.701Z,48.90
2018-03-27T04:05:23.694Z,47.30
2018-03-27T04:06:23.684Z,54.90
2018-03-27T04:07:23.671Z,47.50
2018-03-27T04:08:23.660Z,49.50
2018-03-27T04:09:23.660Z,53.90
2018-03-27T04:10:23.641Z,52.80
2018-03-27T04:11:23.663Z,52.60
2018-03-27T04:12:23.622Z,49.20
2018-03-27T04:13:23.612Z,57.60
2018-03-27T04:14:23.603Z,57.80
2018-03-27T04:15:23.593Z,56.50
2018-03-27T04:16:23.582Z,58.90
2018-03-27T04:17:23.572Z,55.00
2018-03-27T04:18:23.562Z,69.90
2018-03-27T04:19:23.557Z,63.20
2018-03-27T04:20:23.545Z,60.80
2018-03-27T04:21:23.532Z,64.10
2018-03-27T04:22:23.522Z,65.60
2018-03-27T04:23:23.517Z,66.10
2018-03-27T04:24:23.505Z,64.90
2018-03-27T04:25:23.492Z,63.00
2018-03-27T04:26:23.485Z,64.70
2018-03-27T04:27:23.473Z,62.90
2018-03-27T04:28:23.463Z,65.90
2018-03-27T04:29:23.453Z,63.80
2018-03-27T04:30:23.441Z,64.80
2018-03-27T04:31:23.435Z,61.20
2018-03-27T04:32:23.421Z,63.50
2018-03-27T04:33:23.415Z,61.30
2018-03-27T04:34:23.406Z,61.60
2018-03-27T04:35:23.392Z,59.20
2018-03-27T04:36:23.381Z,68.00
2018-03-27T04:37:23.374Z,60.70
2018-03-27T04:38:23.364Z,59.40
2018-03-27T04:39:23.351Z,60.60
2018-03-27T04:40:23.339Z,65.70
2018-03-27T04:41:23.330Z,64.50
2018-03-27T04:42:23.319Z,62.20
2018-03-27T04:43:23.309Z,63.30
2018-03-27T04:44:23.299Z,63.80
2018-03-27T04:45:23.293Z,64.00
2018-03-27T04:46:23.283Z,60.30
2018-03-27T04:47:23.269Z,64.60
2018-03-27T04:48:23.257Z,61.10
2018-03-27T04:49:23.248Z,58.40
2018-03-27T04:50:23.238Z,58.20
2018-03-27T04:51:23.227Z,61.10
2018-03-27T04:52:23.219Z,64.60
2018-03-27T04:53:23.207Z,63.20
2018-03-27T04:54:23.197Z,67.30
2018-03-27T04:55:23.187Z,65.90
2018-03-27T04:56:23.175Z,62.20
2018-03-27T04:57:23.169Z,61.30
2018-03-27T04:58:23.164Z,66.10
2018-03-27T04:59:23.147Z,65.40
2018-03-27T05:00:23.139Z,64.20
2018-03-27T05:01:23.124Z,65.90
2018-03-27T05:02:23.129Z,61.20
2018-03-27T05:03:23.111Z,59.10
2018-03-27T05:04:23.096Z,60.40
2018-03-27T05:05:23.084Z,63.60
2018-03-27T05:06:23.072Z,60.60
2018-03-27T05:07:23.063Z,56.50
2018-03-27T05:08:23.052Z,59.90
2018-03-27T05:09:23.041Z,61.30
2018-03-27T05:10:23.031Z,59.60
2018-03-27T05:11:23.022Z,60.10
2018-03-27T05:12:23.009Z,61.50
2018-03-27T05:13:22.998Z,61.40
2018-03-27T05:14:22.989Z,61.80
2018-03-27T05:15:22.986Z,62.60
2018-03-27T05:16:22.974Z,63.70
2018-03-27T05:17:22.961Z,66.00
2018-03-27T05:18:22.951Z,66.30
2018-03-27T05:19:22.937Z,67.40
2018-03-27T05:20:22.926Z,64.20
2018-03-27T05:21:22.915Z,68.90
2018-03-27T05:22:22.907Z,69.00
2018-03-27T05:23:22.918Z,66.40
2018-03-27T05:24:22.885Z,67.20
2018-03-27T05:25:22.874Z,67.10
2018-03-27T05:26:22.865Z,70.00
2018-03-27T05:27:22.854Z,65.10
2018-03-27T05:28:22.843Z,63.60
2018-03-27T05:29:22.836Z,67.30
2018-03-27T05:30:22.831Z,67.20
2018-03-27T05:31:22.812Z,67.20
2018-03-27T05:32:22.802Z,70.50
2018-03-27T05:33:22.792Z,65.20
2018-03-27T05:34:22.781Z,67.30
2018-03-27T05:35:22.775Z,64.20
2018-03-27T05:36:22.765Z,73.40
2018-03-27T05:37:22.749Z,61.00
2018-03-27T05:38:22.742Z,63.50
2018-03-27T05:39:22.731Z,67.50
2018-03-27T05:40:22.719Z,65.90
2018-03-27T05:41:22.710Z,70.60
2018-03-27T05:42:22.700Z,68.60
2018-03-27T05:43:22.689Z,65.60
2018-03-27T05:44:22.679Z,69.70
2018-03-27T05:45:22.671Z,60.40
2018-03-27T05:46:22.659Z,66.80
2018-03-27T05:47:22.667Z,58.20
2018-03-27T05:48:22.642Z,58.80
2018-03-27T05:49:22.628Z,52.60
2018-03-27T05:50:22.620Z,53.10
2018-03-27T05:51:22.610Z,53.10
2018-03-27T05:52:22.597Z,49.50
2018-03-27T05:53:22.588Z,48.60
2018-03-27T05:54:22.578Z,47.40
2018-03-27T05:55:22.572Z,46.90
2018-03-27T05:56:22.562Z,54.80
2018-03-27T05:57:22.549Z,50.70
2018-03-27T05:58:22.541Z,49.00
2018-03-27T05:59:22.534Z,50.20
2018-03-27T06:00:22.524Z,54.60
2018-03-27T06:01:22.511Z,49.50
2018-03-27T06:02:22.503Z,46.40
2018-03-27T06:03:22.492Z,49.10
2018-03-27T06:04:22.484Z,46.10
2018-03-27T06:05:22.475Z,47.40
2018-03-27T06:06:22.464Z,48.00
2018-03-27T06:07:22.456Z,43.80
2018-03-27T06:08:22.448Z,46.30
2018-03-27T06:09:22.441Z,42.40
2018-03-27T06:10:22.433Z,44.60
2018-03-27T06:11:22.420Z,45.90
2018-03-27T06:12:22.412Z,41.90
2018-03-27T06:13:22.407Z,43.30
2018-03-27T06:14:22.400Z,42.30
2018-03-27T06:15:22.389Z,39.60
2018-03-27T06:16:22.379Z,41.50
2018-03-27T06:17:22.378Z,42.40
2018-03-27T06:18:22.365Z,44.40
2018-03-27T06:19:22.360Z,39.70
2018-03-27T06:20:22.350Z,38.40
2018-03-27T06:21:22.344Z,41.00
2018-03-27T06:22:22.338Z,40.00
2018-03-27T06:23:22.331Z,38.00
2018-03-27T06:24:22.324Z,39.40
2018-03-27T06:25:22.318Z,36.80
2018-03-27T06:26:22.312Z,39.80
2018-03-27T06:27:22.317Z,41.50
2018-03-27T06:28:22.304Z,37.40
2018-03-27T06:29:22.296Z,39.90
2018-03-27T06:30:22.290Z,36.70
2018-03-27T06:31:22.289Z,36.40
2018-03-27T06:32:22.284Z,37.80
2018-03-27T06:33:22.277Z,37.20
2018-03-27T06:34:22.273Z,37.60
2018-03-27T06:35:22.268Z,35.80
2018-03-27T06:36:22.264Z,40.20
2018-03-27T06:37:22.261Z,41.30
2018-03-27T06:38:22.256Z,41.40
2018-03-27T06:39:22.254Z,41.10
2018-03-27T06:40:22.250Z,40.50
2018-03-27T06:41:22.249Z,42.60
2018-03-27T06:42:22.246Z,41.00
2018-03-27T06:43:22.240Z,41.10
2018-03-27T06:44:22.238Z,39.40
2018-03-27T06:45:22.238Z,40.20
2018-03-27T06:46:22.237Z,40.90
2018-03-27T06:47:22.232Z,39.50
2018-03-27T06:48:22.229Z,42.10
2018-03-27T06:49:22.229Z,40.20
2018-03-27T06:50:22.227Z,41.60
2018-03-27T06:51:22.226Z,41.20
2018-03-27T06:52:22.223Z,42.20
2018-03-27T06:53:22.224Z,41.70
2018-03-27T06:54:22.224Z,42.10
2018-03-27T06:55:22.224Z,42.90
2018-03-27T06:56:22.223Z,40.00
2018-03-27T06:57:22.222Z,42.40
2018-03-27T06:58:22.223Z,40.60
2018-03-27T06:59:22.226Z,42.50
2018-03-27T07:00:22.226Z,42.30
2018-03-27T07:01:22.228Z,42.10
2018-03-27T07:02:22.250Z,43.30
2018-03-27T07:03:22.231Z,44.00
2018-03-27T07:04:22.231Z,44.40
2018-03-27T07:05:22.254Z,44.60
2018-03-27T07:06:22.255Z,46.20
2018-03-27T07:07:22.229Z,43.60
2018-03-27T07:08:22.238Z,44.10
2018-03-27T07:09:22.231Z,42.50
2018-03-27T07:10:22.232Z,43.40
2018-03-27T07:11:22.258Z,43.00
2018-03-27T07:12:22.235Z,43.90
2018-03-27T07:13:22.283Z,40.80
2018-03-27T07:14:22.279Z,43.50
2018-03-27T07:15:22.250Z,42.50
2018-03-27T07:16:22.253Z,43.70
2018-03-27T07:17:22.263Z,43.20
2018-03-27T07:18:22.250Z,43.50
2018-03-27T07:19:22.251Z,43.50
2018-03-27T07:20:22.264Z,44.70
2018-03-27T07:21:22.253Z,42.90
2018-03-27T07:22:22.256Z,41.00
2018-03-27T07:23:22.262Z,42.10
2018-03-27T07:24:22.261Z,42.60
2018-03-27T07:25:22.262Z,42.60
2018-03-27T07:26:22.265Z,42.10
2018-03-27T07:27:22.269Z,42.70
2018-03-27T07:28:22.271Z,42.10
2018-03-27T07:29:22.272Z,43.50
2018-03-27T07:30:22.275Z,41.80
2018-03-27T07:31:22.287Z,41.90
2018-03-27T07:32:22.283Z,42.80
2018-03-27T07:33:22.283Z,42.80
2018-03-27T07:34:22.286Z,41.70
2018-03-27T07:35:22.294Z,41.90
2018-03-27T07:36:22.295Z,40.30
2018-03-27T07:37:22.296Z,40.40
2018-03-27T07:38:22.303Z,41.80
2018-03-27T07:39:22.301Z,41.50
2018-03-27T07:40:22.304Z,39.90
2018-03-27T07:41:22.308Z,40.00
2018-03-27T07:42:22.314Z,40.00
2018-03-27T07:43:22.317Z,39.70
2018-03-27T07:44:22.321Z,39.90
2018-03-27T07:45:22.329Z,39.70
2018-03-27T07:46:22.333Z,38.00
2018-03-27T07:47:22.335Z,39.60
2018-03-27T07:48:22.339Z,40.30
2018-03-27T07:49:22.346Z,39.10
2018-03-27T07:50:22.352Z,38.50
2018-03-27T07:51:22.352Z,38.80
2018-03-27T07:52:22.357Z,38.30
2018-03-27T07:53:22.362Z,39.70
2018-03-27T07:54:22.368Z,38.30
2018-03-27T07:55:22.373Z,40.10
2018-03-27T07:56:22.377Z,40.70
2018-03-27T07:57:22.386Z,38.60
2018-03-27T07:58:22.392Z,38.60
2018-03-27T07:59:22.395Z,38.20
2018-03-27T08:00:22.401Z,36.40
2018-03-27T08:01:22.405Z,37.10
2018-03-27T08:02:22.414Z,36.90
2018-03-27T08:03:22.415Z,37.10
2018-03-27T08:04:22.421Z,37.20
2018-03-27T08:05:22.428Z,39.30
2018-03-27T08:06:22.432Z,38.60
2018-03-27T08:07:22.438Z,39.70
2018-03-27T08:08:22.444Z,39.10
2018-03-27T08:09:22.452Z,38.10
2018-03-27T08:10:22.459Z,36.00
2018-03-27T08:11:22.460Z,39.30
2018-03-27T08:12:22.466Z,39.90
2018-03-27T08:13:22.472Z,39.90
2018-03-27T08:14:22.478Z,40.00
2018-03-27T08:15:22.493Z,39.90
2018-03-27T08:16:22.492Z,37.50
2018-03-27T08:17:22.494Z,38.60
2018-03-27T08:18:22.500Z,40.10
2018-03-27T08:19:22.504Z,38.30
2018-03-27T08:20:22.510Z,38.10
2018-03-27T08:21:22.515Z,38.50
2018-03-27T08:22:22.526Z,37.50
2018-03-27T08:23:22.526Z,37.40
2018-03-27T08:24:22.641Z,34.40
2018-03-27T08:25:22.537Z,35.60
2018-03-27T08:26:22.542Z,36.90
2018-03-27T08:27:22.554Z,35.20
2018-03-27T08:28:22.557Z,38.00
2018-03-27T08:29:22.606Z,39.20
2018-03-27T08:30:22.580Z,38.10
2018-03-27T08:31:22.571Z,37.90
2018-03-27T08:32:22.584Z,38.60
2018-03-27T08:33:22.582Z,38.50
2018-03-27T08:34:22.591Z,40.00
2018-03-27T08:35:22.592Z,39.60
2018-03-27T08:36:22.642Z,40.30
2018-03-27T08:37:22.607Z,40.30
2018-03-27T08:38:22.607Z,40.20
2018-03-27T08:39:22.613Z,41.00
2018-03-27T08:40:22.617Z,40.80
2018-03-27T08:41:22.625Z,41.30
2018-03-27T08:42:22.629Z,40.20
2018-03-27T08:43:22.635Z,40.40
2018-03-27T08:44:22.633Z,41.40
2018-03-27T08:45:22.636Z,41.90
2018-03-27T08:46:22.643Z,39.10
2018-03-27T08:47:22.648Z,40.30
2018-03-27T08:48:22.656Z,39.70
2018-03-27T08:49:22.652Z,39.20
2018-03-27T08:50:22.655Z,40.30
2018-03-27T08:51:22.658Z,40.60
2018-03-27T08:52:22.661Z,39.40
2018-03-27T08:53:22.664Z,37.10
2018-03-27T08:54:22.671Z,34.40
2018-03-27T08:55:22.670Z,35.20
2018-03-27T08:56:22.672Z,35.30
2018-03-27T08:57:22.679Z,35.90
2018-03-27T08:58:22.680Z,33.80
2018-03-27T08:59:22.688Z,34.80
2018-03-27T09:00:22.691Z,34.30
2018-03-27T09:01:22.693Z,33.80
2018-03-27T09:02:22.697Z,33.40
2018-03-27T09:03:22.703Z,34.90
2018-03-27T09:04:22.705Z,34.10
2018-03-27T09:05:22.752Z,34.00
2018-03-27T09:06:22.725Z,37.50
2018-03-27T09:07:22.723Z,37.20
2018-03-27T09:08:22.727Z,35.80
2018-03-27T09:09:22.728Z,33.40
2018-03-27T09:10:22.734Z,33.40
2018-03-27T09:11:22.744Z,34.10
2018-03-27T09:12:22.746Z,34.30
2018-03-27T09:13:22.747Z,34.70
2018-03-27T09:14:22.752Z,35.00
2018-03-27T09:15:22.757Z,34.90
2018-03-27T09:16:22.766Z,32.90
2018-03-27T09:17:22.767Z,34.10
2018-03-27T09:18:22.769Z,33.40
2018-03-27T09:19:22.774Z,31.40
2018-03-27T09:20:22.776Z,30.20
2018-03-27T09:21:22.784Z,31.20
2018-03-27T09:22:22.787Z,29.60
2018-03-27T09:23:22.809Z,29.20
2018-03-27T09:24:22.788Z,28.00
2018-03-27T09:25:22.794Z,28.70
2018-03-27T09:26:22.799Z,27.30
2018-03-27T09:27:22.795Z,27.40
2018-03-27T09:28:22.796Z,29.30
2018-03-27T09:29:22.797Z,28.70
2018-03-27T09:30:22.800Z,28.90
2018-03-27T09:31:22.800Z,28.20
2018-03-27T09:32:22.802Z,28.70
2018-03-27T09:33:22.803Z,29.40
2018-03-27T09:34:22.802Z,30.10
2018-03-27T09:35:22.808Z,32.10
2018-03-27T09:36:22.803Z,30.70
2018-03-27T09:37:22.802Z,31.30
2018-03-27T09:38:22.802Z,28.50
2018-03-27T09:39:22.808Z,28.10
2018-03-27T09:40:22.806Z,30.10
2018-03-27T09:41:22.802Z,29.70
2018-03-27T09:42:22.802Z,29.40
2018-03-27T09:43:22.805Z,27.90
2018-03-27T09:44:22.806Z,29.00
2018-03-27T09:45:22.799Z,27.10
2018-03-27T09:46:22.798Z,27.90
2018-03-27T09:47:22.797Z,27.20
2018-03-27T09:48:22.796Z,25.70
2018-03-27T09:49:22.797Z,27.30
2018-03-27T09:50:22.839Z,28.00
2018-03-27T09:51:22.792Z,26.70
2018-03-27T09:52:22.790Z,28.20
2018-03-27T09:53:22.792Z,28.60
2018-03-27T09:54:22.791Z,28.40
2018-03-27T09:55:22.785Z,28.10
2018-03-27T09:56:22.785Z,27.50
2018-03-27T09:57:22.788Z,28.30
2018-03-27T09:58:22.783Z,28.00
2018-03-27T09:59:22.777Z,28.30
2018-03-27T10:00:22.773Z,26.30
2018-03-27T10:01:22.773Z,27.80
2018-03-27T10:02:22.774Z,25.80
2018-03-27T10:03:22.767Z,25.70
2018-03-27T10:04:22.765Z,25.70
2018-03-27T10:05:22.767Z,26.30
2018-03-27T10:06:22.763Z,25.40
2018-03-27T10:07:22.761Z,27.00
2018-03-27T10:08:22.754Z,25.60
2018-03-27T10:09:22.752Z,25.60
2018-03-27T10:10:22.749Z,27.10
2018-03-27T10:11:22.747Z,26.40
2018-03-27T10:12:22.744Z,28.20
2018-03-27T10:13:22.740Z,25.80
2018-03-27T10:14:22.742Z,28.00
2018-03-27T10:15:22.742Z,25.60
2018-03-27T10:16:22.732Z,28.00
2018-03-27T10:17:22.734Z,25.60
2018-03-27T10:18:22.730Z,25.80
2018-03-27T10:19:22.723Z,25.00
2018-03-27T10:20:22.720Z,26.60
2018-03-27T10:21:22.719Z,25.40
2018-03-27T10:22:22.719Z,25.10
2018-03-27T10:23:22.717Z,26.60
2018-03-27T10:24:22.713Z,24.90
2018-03-27T10:25:22.707Z,24.90
2018-03-27T10:26:22.705Z,24.00
2018-03-27T10:27:22.715Z,25.30
2018-03-27T10:28:22.699Z,24.00
2018-03-27T10:29:22.696Z,23.70
2018-03-27T10:30:22.694Z,23.60
2018-03-27T10:31:22.689Z,22.40
2018-03-27T10:32:22.686Z,23.90
2018-03-27T10:33:22.683Z,23.40
2018-03-27T10:34:22.679Z,23.90
2018-03-27T10:35:22.681Z,23.80
2018-03-27T10:36:22.677Z,23.30
2018-03-27T10:37:22.675Z,21.80
2018-03-27T10:38:22.672Z,23.10
2018-03-27T10:39:22.665Z,21.90
2018-03-27T10:40:22.662Z,20.10
2018-03-27T10:41:22.660Z,21.60
2018-03-27T10:42:22.657Z,21.80
2018-03-27T10:43:22.656Z,21.30
2018-03-27T10:44:22.653Z,21.40
2018-03-27T10:45:22.688Z,22.00
2018-03-27T10:46:22.650Z,22.80
2018-03-27T10:47:22.649Z,21.40
2018-03-27T10:48:22.645Z,20.70
2018-03-27T10:49:22.650Z,24.00
2018-03-27T10:50:22.649Z,23.50
2018-03-27T10:51:22.646Z,22.70
2018-03-27T10:52:22.644Z,23.20
2018-03-27T10:53:22.645Z,23.10
2018-03-27T10:54:22.647Z,21.20
2018-03-27T10:55:22.651Z,23.40
2018-03-27T10:56:22.651Z,23.90
2018-03-27T10:57:22.649Z,22.00
2018-03-27T10:58:22.650Z,23.30
2018-03-27T10:59:22.652Z,23.70
2018-03-27T11:00:22.653Z,23.40
2018-03-27T11:01:22.655Z,24.00
2018-03-27T11:02:22.658Z,23.80
2018-03-27T11:03:22.660Z,24.80
2018-03-27T11:04:22.660Z,23.60
2018-03-27T11:05:22.663Z,21.20
2018-03-27T11:06:22.665Z,22.20
2018-03-27T11:07:22.672Z,22.30
2018-03-27T11:08:22.675Z,24.40
2018-03-27T11:09:22.674Z,22.70
2018-03-27T11:10:22.678Z,23.90
2018-03-27T11:11:22.683Z,23.40
2018-03-27T11:12:22.686Z,23.10
2018-03-27T11:13:22.688Z,24.80
2018-03-27T11:14:22.692Z,25.10
2018-03-27T11:15:22.692Z,24.90
2018-03-27T11:16:22.693Z,25.90
2018-03-27T11:17:22.708Z,25.80
2018-03-27T11:18:22.705Z,24.40
2018-03-27T11:19:22.705Z,25.90
2018-03-27T11:20:22.708Z,25.50
2018-03-27T11:21:22.712Z,24.20
2018-03-27T11:22:22.715Z,26.60
2018-03-27T11:23:22.755Z,26.50
2018-03-27T11:24:22.721Z,27.30
2018-03-27T11:25:22.725Z,26.20
2018-03-27T11:26:22.729Z,24.60
2018-03-27T11:27:22.731Z,24.70
2018-03-27T11:28:22.734Z,25.80
2018-03-27T11:29:22.786Z,25.50
2018-03-27T11:30:22.739Z,25.80
2018-03-27T11:31:22.745Z,24.70
2018-03-27T11:32:22.747Z,24.70
2018-03-27T11:33:22.745Z,25.70
2018-03-27T11:34:22.747Z,24.80
2018-03-27T11:35:22.753Z,24.60
2018-03-27T11:36:22.753Z,24.00
2018-03-27T11:37:22.752Z,23.60
2018-03-27T11:38:22.753Z,25.90
2018-03-27T11:39:22.754Z,25.40
2018-03-27T11:40:22.753Z,24.80
2018-03-27T11:41:22.755Z,26.60
2018-03-27T11:42:22.760Z,26.00
2018-03-27T11:43:22.754Z,25.70
2018-03-27T11:44:22.813Z,26.50
2018-03-27T11:45:22.758Z,28.40
2018-03-27T11:46:22.757Z,27.50
2018-03-27T11:47:22.753Z,26.90
2018-03-27T11:48:22.763Z,28.10
2018-03-27T11:49:22.755Z,26.90
2018-03-27T11:50:22.754Z,27.50
2018-03-27T11:51:22.749Z,26.90
2018-03-27T11:52:22.748Z,26.30
2018-03-27T11:53:22.755Z,26.00
2018-03-27T11:54:22.744Z,26.40
2018-03-27T11:55:22.744Z,27.00
2018-03-27T11:56:22.746Z,27.00
2018-03-27T11:57:22.742Z,27.60
2018-03-27T11:58:22.740Z,26.00
2018-03-27T11:59:22.738Z,27.80
2018-03-27T12:00:22.737Z,25.70
2018-03-27T12:01:22.734Z,26.70
2018-03-27T12:02:22.732Z,26.50
2018-03-27T12:03:22.737Z,26.20
2018-03-27T12:04:22.734Z,26.60
2018-03-27T12:05:22.729Z,27.20
2018-03-27T12:06:22.729Z,26.40
2018-03-27T12:07:22.754Z,26.90
2018-03-27T12:08:22.728Z,25.40
2018-03-27T12:09:22.724Z,26.90
2018-03-27T12:10:22.724Z,24.40
2018-03-27T12:11:22.725Z,26.00
2018-03-27T12:12:22.720Z,24.70
2018-03-27T12:13:22.718Z,26.40
2018-03-27T12:14:22.721Z,25.40
2018-03-27T12:15:22.720Z,25.60
2018-03-27T12:16:22.718Z,24.40
2018-03-27T12:17:22.714Z,24.80
2018-03-27T12:18:22.714Z,24.10
2018-03-27T12:19:22.711Z,25.20
2018-03-27T12:20:22.710Z,26.50
2018-03-27T12:21:22.708Z,24.30
2018-03-27T12:22:22.706Z,25.10
2018-03-27T12:23:22.704Z,23.90
2018-03-27T12:24:22.702Z,24.70
2018-03-27T12:25:22.702Z,24.90
2018-03-27T12:26:22.699Z,24.70
2018-03-27T12:27:22.702Z,26.60
2018-03-27T12:28:22.699Z,24.00
2018-03-27T12:29:22.698Z,23.90
2018-03-27T12:30:22.696Z,26.60
2018-03-27T12:31:22.689Z,25.10
2018-03-27T12:32:22.688Z,25.10
2018-03-27T12:33:22.691Z,25.80
2018-03-27T12:34:22.683Z,23.90
2018-03-27T12:35:22.681Z,24.20
2018-03-27T12:36:22.679Z,25.10
2018-03-27T12:37:22.675Z,23.00
2018-03-27T12:38:22.675Z,24.10
2018-03-27T12:39:22.676Z,22.40
2018-03-27T12:40:22.669Z,21.70
2018-03-27T12:41:22.671Z,23.10
2018-03-27T12:42:22.680Z,22.80
2018-03-27T12:43:22.662Z,22.40
2018-03-27T12:44:22.661Z,22.00
2018-03-27T12:45:22.656Z,22.70
2018-03-27T12:46:22.668Z,22.40
2018-03-27T12:47:22.659Z,22.00
2018-03-27T12:48:22.661Z,23.30
2018-03-27T12:49:22.649Z,22.30
2018-03-27T12:50:22.647Z,23.60
2018-03-27T12:51:22.648Z,24.20
2018-03-27T12:52:22.641Z,22.60